Accueil
METAR-TAF:

METAR-TAF

Aéroports :

Tongatapu, Tonga

Aéroport international Fuaʻamotu

latitude: 21-14S, longitude: 175-09W, altitude: 38 m

Observation

Le bulletin a été fait il y a 32 minutes, à 16:00 UTC
Vent calme
Température 23°C
Humidité 100%
Pression 1012 hPa
Visibilité 10 km ou plus
Quelques nuages à une hauteur de 900 ft
Nuages épars à une hauteur de 1600 ft
Nuages fragmentés à une hauteur de 11000 ft

METAR: NFTF 191600Z 00000KT 9999 FEW009 SCT016 BKN110 23/23 Q1012

Heure: 05:32 (16:32 UTC)

Prévision

Le bulletin a été fait il y a 5 heures et 23 minutes, à 11:09 UTC
Prévision valable du 19 à 12 UTC au 20 à 12 UTC
Vent 3 kt de direction variable
Visibilité 10 km ou plus
Quelques nuages à une hauteur de 900 ft
Nuages épars à une hauteur de 1600 ft
Nuages fragmentés à une hauteur de 3000 ft

TAF: NFTF 191109Z 1912/2012 VRB03KT 9999 FEW009 SCT016 BKN030

Observations et prévisions météorologiques de plus de 4000 aéroports (messages METAR et TAF).

Les stations disponibles sont représentées par des disques jaunes et rouges sur la carte.

Passer la souris dessus pour voir le nom de la station.

Cliquer dessus pour voir les observations et prévisions météorologiques.

Pour changer de carte: cliquez sur les boutons verts avec une croix noire pour zoomer, sur le bouton vert avec un tiret pour effectuer un zoom arrière, ou sur les flèches vertes pour les cartes adjacentes.


METAR-TAF: